sensor_id;sensor_type;location;lat;lon;timestamp;pressure;altitude;pressure_sealevel;temperature
75428;BMP280;64008;55.612;37.698;2023-07-13T00:00:41;98751.53;;;16.54
75428;BMP280;64008;55.612;37.698;2023-07-13T00:03:07;98739.63;;;16.93
75428;BMP280;64008;55.612;37.698;2023-07-13T00:05:32;98735.44;;;17.42
75428;BMP280;64008;55.612;37.698;2023-07-13T00:07:58;98747.13;;;16.91
75428;BMP280;64008;55.612;37.698;2023-07-13T00:10:23;98743.63;;;16.30
75428;BMP280;64008;55.612;37.698;2023-07-13T00:12:49;98744.66;;;17.08
75428;BMP280;64008;55.612;37.698;2023-07-13T00:15:19;98752.16;;;16.78
75428;BMP280;64008;55.612;37.698;2023-07-13T00:17:52;98757.31;;;17.16
75428;BMP280;64008;55.612;37.698;2023-07-13T00:20:19;98741.31;;;17.02
75428;BMP280;64008;55.612;37.698;2023-07-13T00:22:47;98741.91;;;17.27
75428;BMP280;64008;55.612;37.698;2023-07-13T00:25:13;98749.56;;;16.59
75428;BMP280;64008;55.612;37.698;2023-07-13T00:27:39;98753.88;;;16.55
75428;BMP280;64008;55.612;37.698;2023-07-13T00:30:05;98744.78;;;17.17
75428;BMP280;64008;55.612;37.698;2023-07-13T00:32:31;98742.94;;;17.67
75428;BMP280;64008;55.612;37.698;2023-07-13T00:34:57;98751.25;;;17.38
75428;BMP280;64008;55.612;37.698;2023-07-13T00:37:23;98755.25;;;17.41
75428;BMP280;64008;55.612;37.698;2023-07-13T00:39:49;98751.69;;;17.82
75428;BMP280;64008;55.612;37.698;2023-07-13T00:42:14;98754.41;;;17.54
75428;BMP280;64008;55.612;37.698;2023-07-13T00:44:40;98743.69;;;17.04
75428;BMP280;64008;55.612;37.698;2023-07-13T00:47:06;98746.44;;;16.99
75428;BMP280;64008;55.612;37.698;2023-07-13T00:49:33;98744.63;;;17.49
75428;BMP280;64008;55.612;37.698;2023-07-13T00:52:05;98736.94;;;17.34
75428;BMP280;64008;55.612;37.698;2023-07-13T00:54:38;98749.38;;;17.53
75428;BMP280;64008;55.612;37.698;2023-07-13T00:57:08;98742.88;;;16.90
75428;BMP280;64008;55.612;37.698;2023-07-13T00:59:36;98737.94;;;17.24
75428;BMP280;64008;55.612;37.698;2023-07-13T01:02:03;98750.88;;;17.03
75428;BMP280;64008;55.612;37.698;2023-07-13T01:04:29;98747.63;;;17.20
75428;BMP280;64008;55.612;37.698;2023-07-13T01:06:55;98741.91;;;17.41
75428;BMP280;64008;55.612;37.698;2023-07-13T01:09:22;98741.13;;;17.26
75428;BMP280;64008;55.612;37.698;2023-07-13T01:11:48;98744.47;;;16.91
75428;BMP280;64008;55.612;37.698;2023-07-13T01:14:13;98747.47;;;17.17
75428;BMP280;64008;55.612;37.698;2023-07-13T01:16:41;98745.28;;;16.91
75428;BMP280;64008;55.612;37.698;2023-07-13T01:19:33;98740.63;;;16.97
75428;BMP280;64008;55.612;37.698;2023-07-13T01:22:11;98740.81;;;17.28
75428;BMP280;64008;55.612;37.698;2023-07-13T01:24:40;98735.19;;;17.16
75428;BMP280;64008;55.612;37.698;2023-07-13T01:27:07;98736.34;;;17.23
75428;BMP280;64008;55.612;37.698;2023-07-13T01:29:34;98736.06;;;16.83
75428;BMP280;64008;55.612;37.698;2023-07-13T01:32:06;98731.72;;;16.87
75428;BMP280;64008;55.612;37.698;2023-07-13T01:34:33;98724.63;;;17.11
75428;BMP280;64008;55.612;37.698;2023-07-13T01:36:59;98721.63;;;16.71
75428;BMP280;64008;55.612;37.698;2023-07-13T01:39:24;98721.63;;;16.71
75428;BMP280;64008;55.612;37.698;2023-07-13T01:41:50;98734.59;;;16.91
75428;BMP280;64008;55.612;37.698;2023-07-13T01:44:15;98723.66;;;16.46
75428;BMP280;64008;55.612;37.698;2023-07-13T01:46:41;98722.75;;;16.18
75428;BMP280;64008;55.612;37.698;2023-07-13T01:49:06;98728.16;;;16.78
75428;BMP280;64008;55.612;37.698;2023-07-13T01:51:32;98725.00;;;16.76
75428;BMP280;64008;55.612;37.698;2023-07-13T01:53:57;98715.38;;;17.30
75428;BMP280;64008;55.612;37.698;2023-07-13T01:56:23;98729.78;;;17.07
75428;BMP280;64008;55.612;37.698;2023-07-13T01:58:48;98707.66;;;17.29
75428;BMP280;64008;55.612;37.698;2023-07-13T02:01:14;98711.94;;;17.30
75428;BMP280;64008;55.612;37.698;2023-07-13T02:03:39;98707.13;;;17.04
75428;BMP280;64008;55.612;37.698;2023-07-13T02:06:05;98708.75;;;16.73
75428;BMP280;64008;55.612;37.698;2023-07-13T02:08:32;98710.56;;;17.19
75428;BMP280;64008;55.612;37.698;2023-07-13T02:10:57;98705.59;;;16.43
75428;BMP280;64008;55.612;37.698;2023-07-13T02:13:23;98707.19;;;16.72
75428;BMP280;64008;55.612;37.698;2023-07-13T02:15:51;98710.03;;;16.61
75428;BMP280;64008;55.612;37.698;2023-07-13T02:18:17;98702.75;;;16.81
75428;BMP280;64008;55.612;37.698;2023-07-13T02:20:43;98705.41;;;16.67
75428;BMP280;64008;55.612;37.698;2023-07-13T02:23:09;98707.53;;;16.37
75428;BMP280;64008;55.612;37.698;2023-07-13T02:25:35;98701.69;;;16.35
75428;BMP280;64008;55.612;37.698;2023-07-13T02:28:00;98712.06;;;16.37
75428;BMP280;64008;55.612;37.698;2023-07-13T02:30:26;98705.59;;;16.43
75428;BMP280;64008;55.612;37.698;2023-07-13T02:32:52;98701.25;;;16.61
75428;BMP280;64008;55.612;37.698;2023-07-13T02:35:17;98703.53;;;16.54
75428;BMP280;64008;55.612;37.698;2023-07-13T02:37:43;98706.31;;;16.30
75428;BMP280;64008;55.612;37.698;2023-07-13T02:40:09;98698.19;;;16.67
75428;BMP280;64008;55.612;37.698;2023-07-13T02:42:35;98708.09;;;16.67
75428;BMP280;64008;55.612;37.698;2023-07-13T02:45:00;98700.72;;;16.45
75428;BMP280;64008;55.612;37.698;2023-07-13T02:47:26;98697.56;;;16.57
75428;BMP280;64008;55.612;37.698;2023-07-13T02:49:52;98700.97;;;16.62
75428;BMP280;64008;55.612;37.698;2023-07-13T02:52:18;98697.34;;;16.86
75428;BMP280;64008;55.612;37.698;2023-07-13T02:54:43;98691.09;;;16.49
75428;BMP280;64008;55.612;37.698;2023-07-13T02:57:09;98696.22;;;16.59
75428;BMP280;64008;55.612;37.698;2023-07-13T02:59:34;98689.00;;;16.46
75428;BMP280;64008;55.612;37.698;2023-07-13T03:02:01;98692.41;;;16.65
75428;BMP280;64008;55.612;37.698;2023-07-13T03:04:27;98695.44;;;16.73
75428;BMP280;64008;55.612;37.698;2023-07-13T03:06:52;98691.19;;;16.58
75428;BMP280;64008;55.612;37.698;2023-07-13T03:09:18;98694.28;;;17.06
75428;BMP280;64008;55.612;37.698;2023-07-13T03:11:43;98691.59;;;16.79
75428;BMP280;64008;55.612;37.698;2023-07-13T03:14:09;98699.59;;;17.06
75428;BMP280;64008;55.612;37.698;2023-07-13T03:16:34;98696.03;;;16.97
75428;BMP280;64008;55.612;37.698;2023-07-13T03:19:00;98698.59;;;17.16
75428;BMP280;64008;55.612;37.698;2023-07-13T03:21:25;98686.75;;;17.08
75428;BMP280;64008;55.612;37.698;2023-07-13T03:23:51;98691.41;;;16.75
75428;BMP280;64008;55.612;37.698;2023-07-13T03:26:19;98688.81;;;16.84
75428;BMP280;64008;55.612;37.698;2023-07-13T03:28:45;98704.75;;;16.75
75428;BMP280;64008;55.612;37.698;2023-07-13T03:31:20;98697.44;;;16.81
75428;BMP280;64008;55.612;37.698;2023-07-13T03:33:47;98708.56;;;16.55
75428;BMP280;64008;55.612;37.698;2023-07-13T03:36:16;98700.09;;;16.81
75428;BMP280;64008;55.612;37.698;2023-07-13T03:38:49;98700.69;;;16.64
75428;BMP280;64008;55.612;37.698;2023-07-13T03:41:16;98703.56;;;16.81
75428;BMP280;64008;55.612;37.698;2023-07-13T03:43:42;98699.91;;;16.63
75428;BMP280;64008;55.612;37.698;2023-07-13T03:46:08;98702.66;;;16.72
75428;BMP280;64008;55.612;37.698;2023-07-13T03:48:33;98694.25;;;17.20
75428;BMP280;64008;55.612;37.698;2023-07-13T03:50:59;98702.28;;;16.65
75428;BMP280;64008;55.612;37.698;2023-07-13T03:53:25;98703.91;;;16.61
75428;BMP280;64008;55.612;37.698;2023-07-13T03:55:50;98702.28;;;16.93
75428;BMP280;64008;55.612;37.698;2023-07-13T03:58:33;98694.94;;;17.26
75428;BMP280;64008;55.612;37.698;2023-07-13T04:01:00;98705.66;;;17.48
75428;BMP280;64008;55.612;37.698;2023-07-13T04:03:26;98710.63;;;17.55
75428;BMP280;64008;55.612;37.698;2023-07-13T04:05:54;98716.66;;;17.83
75428;BMP280;64008;55.612;37.698;2023-07-13T04:08:20;98697.81;;;17.16
75428;BMP280;64008;55.612;37.698;2023-07-13T04:10:45;98711.16;;;17.29
75428;BMP280;64008;55.612;37.698;2023-07-13T04:13:11;98713.00;;;17.29
75428;BMP280;64008;55.612;37.698;2023-07-13T04:15:38;98716.56;;;17.38
75428;BMP280;64008;55.612;37.698;2023-07-13T04:18:04;98716.03;;;16.86
75428;BMP280;64008;55.612;37.698;2023-07-13T04:20:29;98719.97;;;16.75
75428;BMP280;64008;55.612;37.698;2023-07-13T04:22:55;98718.78;;;16.95
75428;BMP280;64008;55.612;37.698;2023-07-13T04:25:21;98719.94;;;17.02
75428;BMP280;64008;55.612;37.698;2023-07-13T04:27:46;98714.53;;;17.21
75428;BMP280;64008;55.612;37.698;2023-07-13T04:30:12;98707.50;;;17.25
75428;BMP280;64008;55.612;37.698;2023-07-13T04:32:38;98716.41;;;16.93
75428;BMP280;64008;55.612;37.698;2023-07-13T04:35:03;98708.47;;;17.43
75428;BMP280;64008;55.612;37.698;2023-07-13T04:37:29;98700.09;;;17.08
75428;BMP280;64008;55.612;37.698;2023-07-13T04:39:55;98706.91;;;16.73
75428;BMP280;64008;55.612;37.698;2023-07-13T04:42:20;98698.03;;;16.78
75428;BMP280;64008;55.612;37.698;2023-07-13T04:44:49;98696.66;;;16.94
75428;BMP280;64008;55.612;37.698;2023-07-13T04:47:15;98701.47;;;16.64
75428;BMP280;64008;55.612;37.698;2023-07-13T04:49:41;98687.97;;;16.75
75428;BMP280;64008;55.612;37.698;2023-07-13T04:52:07;98695.38;;;16.92
75428;BMP280;64008;55.612;37.698;2023-07-13T04:54:33;98710.50;;;16.96
75428;BMP280;64008;55.612;37.698;2023-07-13T04:56:59;98708.50;;;17.16
75428;BMP280;64008;55.612;37.698;2023-07-13T04:59:25;98713.34;;;17.14
75428;BMP280;64008;55.612;37.698;2023-07-13T05:01:50;98713.53;;;17.31
75428;BMP280;64008;55.612;37.698;2023-07-13T05:04:16;98716.31;;;17.12
75428;BMP280;64008;55.612;37.698;2023-07-13T05:06:42;98706.22;;;17.59
75428;BMP280;64008;55.612;37.698;2023-07-13T05:09:07;98712.66;;;17.22
75428;BMP280;64008;55.612;37.698;2023-07-13T05:11:33;98711.22;;;17.52
75428;BMP280;64008;55.612;37.698;2023-07-13T05:13:58;98704.63;;;17.94
75428;BMP280;64008;55.612;37.698;2023-07-13T05:16:24;98700.25;;;17.40
75428;BMP280;64008;55.612;37.698;2023-07-13T05:18:49;98706.31;;;17.32
75428;BMP280;64008;55.612;37.698;2023-07-13T05:21:15;98704.84;;;16.98
75428;BMP280;64008;55.612;37.698;2023-07-13T05:23:40;98702.16;;;17.25
75428;BMP280;64008;55.612;37.698;2023-07-13T05:26:09;98699.88;;;17.69
75428;BMP280;64008;55.612;37.698;2023-07-13T05:28:35;98704.31;;;17.73
75428;BMP280;64008;55.612;37.698;2023-07-13T05:31:00;98712.75;;;17.67
75428;BMP280;64008;55.612;37.698;2023-07-13T05:33:26;98716.78;;;18.01
75428;BMP280;64008;55.612;37.698;2023-07-13T05:35:52;98713.13;;;18.19
75428;BMP280;64008;55.612;37.698;2023-07-13T05:38:18;98708.34;;;18.07
75428;BMP280;64008;55.612;37.698;2023-07-13T05:40:44;98707.44;;;18.74
75428;BMP280;64008;55.612;37.698;2023-07-13T05:43:10;98708.22;;;19.32
75428;BMP280;64008;55.612;37.698;2023-07-13T05:45:35;98705.38;;;19.55
75428;BMP280;64008;55.612;37.698;2023-07-13T05:48:01;98700.66;;;19.69
75428;BMP280;64008;55.612;37.698;2023-07-13T05:50:27;98707.25;;;19.80
75428;BMP280;64008;55.612;37.698;2023-07-13T05:52:52;98700.31;;;19.88
75428;BMP280;64008;55.612;37.698;2023-07-13T05:55:19;98698.25;;;19.94
75428;BMP280;64008;55.612;37.698;2023-07-13T05:57:44;98694.94;;;19.97
75428;BMP280;64008;55.612;37.698;2023-07-13T06:00:10;98686.25;;;20.00
75428;BMP280;64008;55.612;37.698;2023-07-13T06:02:36;98696.50;;;19.98
75428;BMP280;64008;55.612;37.698;2023-07-13T06:05:02;98694.63;;;19.98
75428;BMP280;64008;55.612;37.698;2023-07-13T06:07:27;98692.84;;;20.02
75428;BMP280;64008;55.612;37.698;2023-07-13T06:09:52;98700.63;;;19.95
75428;BMP280;64008;55.612;37.698;2023-07-13T06:12:18;98704.91;;;19.96
75428;BMP280;64008;55.612;37.698;2023-07-13T06:14:43;98695.41;;;20.07
75428;BMP280;64008;55.612;37.698;2023-07-13T06:17:09;98697.44;;;20.11
75428;BMP280;64008;55.612;37.698;2023-07-13T06:19:35;98687.44;;;20.20
75428;BMP280;64008;55.612;37.698;2023-07-13T06:22:00;98685.09;;;20.27
75428;BMP280;64008;55.612;37.698;2023-07-13T06:24:26;98693.13;;;20.27
75428;BMP280;64008;55.612;37.698;2023-07-13T06:26:51;98696.13;;;20.25
75428;BMP280;64008;55.612;37.698;2023-07-13T06:29:17;98680.50;;;20.27
75428;BMP280;64008;55.612;37.698;2023-07-13T06:31:43;98671.19;;;20.25
75428;BMP280;64008;55.612;37.698;2023-07-13T06:34:08;98669.00;;;20.27
75428;BMP280;64008;55.612;37.698;2023-07-13T06:36:34;98681.59;;;20.35
75428;BMP280;64008;55.612;37.698;2023-07-13T06:39:02;98672.41;;;20.36
75428;BMP280;64008;55.612;37.698;2023-07-13T06:41:27;98661.03;;;20.39
75428;BMP280;64008;55.612;37.698;2023-07-13T06:43:53;98667.59;;;20.50
75428;BMP280;64008;55.612;37.698;2023-07-13T06:46:22;98672.06;;;20.46
75428;BMP280;64008;55.612;37.698;2023-07-13T06:48:48;98668.09;;;20.52
75428;BMP280;64008;55.612;37.698;2023-07-13T06:51:13;98681.03;;;20.50
75428;BMP280;64008;55.612;37.698;2023-07-13T06:53:39;98677.56;;;20.50
75428;BMP280;64008;55.612;37.698;2023-07-13T06:56:04;98674.44;;;20.48
75428;BMP280;64008;55.612;37.698;2023-07-13T06:58:30;98659.72;;;20.54
75428;BMP280;64008;55.612;37.698;2023-07-13T07:00:56;98673.59;;;20.56
75428;BMP280;64008;55.612;37.698;2023-07-13T07:03:21;98667.59;;;20.59
75428;BMP280;64008;55.612;37.698;2023-07-13T07:05:47;98658.41;;;20.60
75428;BMP280;64008;55.612;37.698;2023-07-13T07:08:13;98671.50;;;20.62
75428;BMP280;64008;55.612;37.698;2023-07-13T07:10:40;98673.53;;;20.65
75428;BMP280;64008;55.612;37.698;2023-07-13T07:13:06;98673.59;;;20.56
75428;BMP280;64008;55.612;37.698;2023-07-13T07:15:31;98671.69;;;20.57
75428;BMP280;64008;55.612;37.698;2023-07-13T07:17:57;98688.88;;;20.56
75428;BMP280;64008;55.612;37.698;2023-07-13T07:20:23;98679.16;;;20.51
75428;BMP280;64008;55.612;37.698;2023-07-13T07:22:48;98696.63;;;20.57
75428;BMP280;64008;55.612;37.698;2023-07-13T07:25:14;98673.06;;;20.63
75428;BMP280;64008;55.612;37.698;2023-07-13T07:27:39;98669.63;;;20.62
75428;BMP280;64008;55.612;37.698;2023-07-13T07:30:05;98678.31;;;20.59
75428;BMP280;64008;55.612;37.698;2023-07-13T07:32:32;98675.00;;;20.62
75428;BMP280;64008;55.612;37.698;2023-07-13T07:34:58;98681.59;;;20.65
75428;BMP280;64008;55.612;37.698;2023-07-13T07:37:24;98686.31;;;20.68
75428;BMP280;64008;55.612;37.698;2023-07-13T07:39:49;98689.97;;;20.63
75428;BMP280;64008;55.612;37.698;2023-07-13T07:42:15;98700.81;;;20.67
75428;BMP280;64008;55.612;37.698;2023-07-13T07:44:41;98710.28;;;20.73
75428;BMP280;64008;55.612;37.698;2023-07-13T07:47:08;98703.34;;;20.72
75428;BMP280;64008;55.612;37.698;2023-07-13T07:49:34;98689.00;;;20.68
75428;BMP280;64008;55.612;37.698;2023-07-13T07:52:00;98698.31;;;20.70
75428;BMP280;64008;55.612;37.698;2023-07-13T07:54:25;98695.91;;;20.78
75428;BMP280;64008;55.612;37.698;2023-07-13T07:56:51;98705.84;;;20.77
75428;BMP280;64008;55.612;37.698;2023-07-13T07:59:16;98697.03;;;20.77
75428;BMP280;64008;55.612;37.698;2023-07-13T08:01:42;98694.19;;;20.73
75428;BMP280;64008;55.612;37.698;2023-07-13T08:04:08;98708.25;;;20.70
75428;BMP280;64008;55.612;37.698;2023-07-13T08:06:34;98721.34;;;20.71
75428;BMP280;64008;55.612;37.698;2023-07-13T08:09:00;98717.56;;;20.72
75428;BMP280;64008;55.612;37.698;2023-07-13T08:11:26;98702.88;;;20.70
75428;BMP280;64008;55.612;37.698;2023-07-13T08:13:52;98721.53;;;20.66
75428;BMP280;64008;55.612;37.698;2023-07-13T08:16:17;98724.34;;;20.70
75428;BMP280;64008;55.612;37.698;2023-07-13T08:18:43;98707.66;;;20.64
75428;BMP280;64008;55.612;37.698;2023-07-13T08:21:09;98738.91;;;20.60
75428;BMP280;64008;55.612;37.698;2023-07-13T08:23:35;98714.31;;;20.58
75428;BMP280;64008;55.612;37.698;2023-07-13T08:26:01;98710.66;;;20.63
75428;BMP280;64008;55.612;37.698;2023-07-13T08:28:27;98705.09;;;20.68
75428;BMP280;64008;55.612;37.698;2023-07-13T08:30:53;98698.00;;;20.72
75428;BMP280;64008;55.612;37.698;2023-07-13T08:33:20;98705.88;;;20.68
75428;BMP280;64008;55.612;37.698;2023-07-13T08:35:47;98716.31;;;20.70
75428;BMP280;64008;55.612;37.698;2023-07-13T08:38:12;98717.28;;;20.65
75428;BMP280;64008;55.612;37.698;2023-07-13T08:40:39;98717.44;;;20.69
75428;BMP280;64008;55.612;37.698;2023-07-13T08:43:04;98699.59;;;20.64
75428;BMP280;64008;55.612;37.698;2023-07-13T08:45:54;98706.69;;;20.69
75428;BMP280;64008;55.612;37.698;2023-07-13T08:48:36;98695.66;;;20.70
75428;BMP280;64008;55.612;37.698;2023-07-13T08:54:03;98730.19;;;20.72
75428;BMP280;64008;55.612;37.698;2023-07-13T08:56:30;98717.91;;;20.71
75428;BMP280;64008;55.612;37.698;2023-07-13T08:58:58;98698.31;;;20.70
75428;BMP280;64008;55.612;37.698;2023-07-13T09:01:44;98702.53;;;20.71
75428;BMP280;64008;55.612;37.698;2023-07-13T09:04:16;98693.88;;;20.74
75428;BMP280;64008;55.612;37.698;2023-07-13T09:14:47;98714.88;;;20.72
75428;BMP280;64008;55.612;37.698;2023-07-13T09:17:27;98703.34;;;20.72
75428;BMP280;64008;55.612;37.698;2023-07-13T09:20:04;98706.81;;;20.72
75428;BMP280;64008;55.612;37.698;2023-07-13T09:22:36;98718.66;;;20.71
75428;BMP280;64008;55.612;37.698;2023-07-13T09:27:42;98737.88;;;20.82
75428;BMP280;64008;55.612;37.698;2023-07-13T09:32:47;98721.25;;;20.89
75428;BMP280;64008;55.612;37.698;2023-07-13T09:35:18;98742.22;;;20.95
75428;BMP280;64008;55.612;37.698;2023-07-13T09:37:45;98727.56;;;20.93
75428;BMP280;64008;55.612;37.698;2023-07-13T09:40:20;98736.75;;;20.92
75428;BMP280;64008;55.612;37.698;2023-07-13T09:42:48;98731.22;;;20.88
75428;BMP280;64008;55.612;37.698;2023-07-13T09:45:26;98742.09;;;20.92
75428;BMP280;64008;55.612;37.698;2023-07-13T09:47:59;98735.00;;;20.87
75428;BMP280;64008;55.612;37.698;2023-07-13T09:50:24;98735.81;;;20.88
75428;BMP280;64008;55.612;37.698;2023-07-13T09:52:50;98747.97;;;20.85
75428;BMP280;64008;55.612;37.698;2023-07-13T09:55:29;98742.94;;;20.84
75428;BMP280;64008;55.612;37.698;2023-07-13T09:57:55;98742.59;;;20.85
75428;BMP280;64008;55.612;37.698;2023-07-13T10:00:27;98730.28;;;20.84
75428;BMP280;64008;55.612;37.698;2023-07-13T10:03:17;98750.06;;;20.80
75428;BMP280;64008;55.612;37.698;2023-07-13T10:05:45;98739.63;;;20.78
75428;BMP280;64008;55.612;37.698;2023-07-13T10:08:26;98751.78;;;20.75
75428;BMP280;64008;55.612;37.698;2023-07-13T10:11:00;98736.69;;;20.71
75428;BMP280;64008;55.612;37.698;2023-07-13T10:13:34;98741.72;;;20.72
75428;BMP280;64008;55.612;37.698;2023-07-13T10:16:02;98738.09;;;20.68
75428;BMP280;64008;55.612;37.698;2023-07-13T10:18:33;98755.47;;;20.71
75428;BMP280;64008;55.612;37.698;2023-07-13T10:21:18;98749.31;;;20.70
75428;BMP280;64008;55.612;37.698;2023-07-13T10:23:51;98745.81;;;20.70
75428;BMP280;64008;55.612;37.698;2023-07-13T10:26:25;98745.81;;;20.70
75428;BMP280;64008;55.612;37.698;2023-07-13T10:28:54;98754.50;;;20.67
75428;BMP280;64008;55.612;37.698;2023-07-13T10:31:21;98759.13;;;20.66
75428;BMP280;64008;55.612;37.698;2023-07-13T10:33:47;98757.88;;;20.64
75428;BMP280;64008;55.612;37.698;2023-07-13T10:36:15;98759.25;;;20.70
75428;BMP280;64008;55.612;37.698;2023-07-13T10:38:43;98773.97;;;20.64
75428;BMP280;64008;55.612;37.698;2023-07-13T10:41:15;98761.81;;;20.66
75428;BMP280;64008;55.612;37.698;2023-07-13T10:43:44;98765.22;;;20.67
75428;BMP280;64008;55.612;37.698;2023-07-13T10:46:14;98758.66;;;20.64
75428;BMP280;64008;55.612;37.698;2023-07-13T10:48:43;98762.56;;;20.67
75428;BMP280;64008;55.612;37.698;2023-07-13T10:51:10;98768.00;;;20.58
75428;BMP280;64008;55.612;37.698;2023-07-13T10:53:38;98761.50;;;20.59
75428;BMP280;64008;55.612;37.698;2023-07-13T10:56:52;98780.28;;;20.59
75428;BMP280;64008;55.612;37.698;2023-07-13T10:59:02;98774.31;;;20.53
75428;BMP280;64008;55.612;37.698;2023-07-13T11:01:40;98767.81;;;20.55
75428;BMP280;64008;55.612;37.698;2023-07-13T11:04:12;98765.31;;;20.58
75428;BMP280;64008;55.612;37.698;2023-07-13T11:06:41;98758.81;;;20.59
75428;BMP280;64008;55.612;37.698;2023-07-13T11:11:47;98764.06;;;20.47
75428;BMP280;64008;55.612;37.698;2023-07-13T11:22:48;98767.69;;;20.42
75428;BMP280;64008;55.612;37.698;2023-07-13T11:30:37;98775.66;;;20.30
75428;BMP280;64008;55.612;37.698;2023-07-13T11:33:21;98762.88;;;20.27
75428;BMP280;64008;55.612;37.698;2023-07-13T11:36:18;98765.56;;;20.27
75428;BMP280;64008;55.612;37.698;2023-07-13T11:39:17;98756.41;;;20.28
75428;BMP280;64008;55.612;37.698;2023-07-13T11:41:51;98749.47;;;20.27
75428;BMP280;64008;55.612;37.698;2023-07-13T11:44:20;98743.94;;;20.32
75428;BMP280;64008;55.612;37.698;2023-07-13T11:46:56;98757.34;;;20.32
75428;BMP280;64008;55.612;37.698;2023-07-13T11:49:25;98741.88;;;20.29
75428;BMP280;64008;55.612;37.698;2023-07-13T11:51:52;98743.94;;;20.23
75428;BMP280;64008;55.612;37.698;2023-07-13T11:56:58;98748.50;;;20.23
75428;BMP280;64008;55.612;37.698;2023-07-13T11:59:27;98745.19;;;20.26
75428;BMP280;64008;55.612;37.698;2023-07-13T12:01:54;98735.09;;;20.23
75428;BMP280;64008;55.612;37.698;2023-07-13T12:04:26;98735.41;;;20.21
75428;BMP280;64008;55.612;37.698;2023-07-13T12:06:54;98751.38;;;20.18
75428;BMP280;64008;55.612;37.698;2023-07-13T12:09:20;98746.13;;;20.21
75428;BMP280;64008;55.612;37.698;2023-07-13T12:11:50;98740.91;;;20.25
75428;BMP280;64008;55.612;37.698;2023-07-13T12:14:17;98745.06;;;20.22
75428;BMP280;64008;55.612;37.698;2023-07-13T12:16:45;98747.44;;;20.24
75428;BMP280;64008;55.612;37.698;2023-07-13T12:19:25;98752.78;;;20.24
75428;BMP280;64008;55.612;37.698;2023-07-13T12:21:58;98756.22;;;20.24
75428;BMP280;64008;55.612;37.698;2023-07-13T12:24:25;98753.75;;;20.19
75428;BMP280;64008;55.612;37.698;2023-07-13T12:26:59;98739.03;;;20.17
75428;BMP280;64008;55.612;37.698;2023-07-13T12:29:29;98740.16;;;20.07
75428;BMP280;64008;55.612;37.698;2023-07-13T12:31:54;98746.16;;;20.13
75428;BMP280;64008;55.612;37.698;2023-07-13T12:34:22;98737.31;;;20.12
75428;BMP280;64008;55.612;37.698;2023-07-13T12:36:55;98743.31;;;20.18
75428;BMP280;64008;55.612;37.698;2023-07-13T12:39:34;98746.31;;;20.16
75428;BMP280;64008;55.612;37.698;2023-07-13T12:42:28;98750.72;;;20.21
75428;BMP280;64008;55.612;37.698;2023-07-13T12:45:22;98737.31;;;20.21
75428;BMP280;64008;55.612;37.698;2023-07-13T12:47:50;98730.84;;;20.22
75428;BMP280;64008;55.612;37.698;2023-07-13T12:50:20;98726.75;;;20.16
75428;BMP280;64008;55.612;37.698;2023-07-13T12:52:59;98732.91;;;20.16
75428;BMP280;64008;55.612;37.698;2023-07-13T12:55:26;98719.97;;;20.18
75428;BMP280;64008;55.612;37.698;2023-07-13T12:57:56;98725.63;;;20.17
75428;BMP280;64008;55.612;37.698;2023-07-13T13:00:28;98729.75;;;20.23
75428;BMP280;64008;55.612;37.698;2023-07-13T13:02:56;98739.81;;;20.26
75428;BMP280;64008;55.612;37.698;2023-07-13T13:05:22;98738.09;;;20.21
75428;BMP280;64008;55.612;37.698;2023-07-13T13:07:50;98742.38;;;20.22
75428;BMP280;64008;55.612;37.698;2023-07-13T13:10:16;98748.38;;;20.19
75428;BMP280;64008;55.612;37.698;2023-07-13T13:12:42;98743.16;;;20.23
75428;BMP280;64008;55.612;37.698;2023-07-13T13:15:11;98742.50;;;20.26
75428;BMP280;64008;55.612;37.698;2023-07-13T13:17:39;98738.41;;;20.20
75428;BMP280;64008;55.612;37.698;2023-07-13T13:20:16;98737.97;;;20.18
75428;BMP280;64008;55.612;37.698;2023-07-13T13:22:42;98734.63;;;20.21
75428;BMP280;64008;55.612;37.698;2023-07-13T13:25:12;98731.00;;;20.17
75428;BMP280;64008;55.612;37.698;2023-07-13T13:27:39;98727.69;;;20.20
75428;BMP280;64008;55.612;37.698;2023-07-13T13:32:47;98713.53;;;20.11
75428;BMP280;64008;55.612;37.698;2023-07-13T13:35:15;98725.97;;;20.15
75428;BMP280;64008;55.612;37.698;2023-07-13T13:37:41;98722.97;;;20.17
75428;BMP280;64008;55.612;37.698;2023-07-13T13:40:15;98719.03;;;20.14
75428;BMP280;64008;55.612;37.698;2023-07-13T13:42:41;98715.88;;;20.12
75428;BMP280;64008;55.612;37.698;2023-07-13T13:45:09;98708.31;;;20.05
75428;BMP280;64008;55.612;37.698;2023-07-13T13:47:35;98689.72;;;20.09
75428;BMP280;64008;55.612;37.698;2023-07-13T13:50:05;98703.13;;;20.09
75428;BMP280;64008;55.612;37.698;2023-07-13T13:52:35;98711.81;;;20.06
75428;BMP280;64008;55.612;37.698;2023-07-13T13:55:00;98704.84;;;20.05
75428;BMP280;64008;55.612;37.698;2023-07-13T13:57:26;98698.22;;;20.11
75428;BMP280;64008;55.612;37.698;2023-07-13T13:59:52;98696.81;;;20.05
75428;BMP280;64008;55.612;37.698;2023-07-13T14:02:26;98708.94;;;20.02
75428;BMP280;64008;55.612;37.698;2023-07-13T14:04:55;98700.75;;;19.99
75428;BMP280;64008;55.612;37.698;2023-07-13T14:07:21;98704.72;;;20.01
75428;BMP280;64008;55.612;37.698;2023-07-13T14:09:47;98710.09;;;20.01
75428;BMP280;64008;55.612;37.698;2023-07-13T14:12:12;98708.22;;;19.93
75428;BMP280;64008;55.612;37.698;2023-07-13T14:14:39;98710.09;;;20.01
75428;BMP280;64008;55.612;37.698;2023-07-13T14:17:22;98707.41;;;20.01
75428;BMP280;64008;55.612;37.698;2023-07-13T14:19:49;98701.22;;;20.01
75428;BMP280;64008;55.612;37.698;2023-07-13T14:22:17;98702.81;;;20.02
75428;BMP280;64008;55.612;37.698;2023-07-13T14:24:43;98698.56;;;20.01
75428;BMP280;64008;55.612;37.698;2023-07-13T14:27:10;98705.00;;;20.08
75428;BMP280;64008;55.612;37.698;2023-07-13T14:29:36;98706.28;;;19.94
75428;BMP280;64008;55.612;37.698;2023-07-13T14:32:02;98703.91;;;20.01
75428;BMP280;64008;55.612;37.698;2023-07-13T14:34:28;98705.81;;;20.00
75428;BMP280;64008;55.612;37.698;2023-07-13T14:36:53;98707.84;;;20.03
75428;BMP280;64008;55.612;37.698;2023-07-13T14:39:21;98703.00;;;19.97